Main page
METAR-TAF:

METAR-TAF

Airports :

Islay Airport

Islay, Scotland

latitude: 55-40-55N, longitude: 006-15-24W, elevation: 16 m

Current weather observation

The report was made 36 minutes ago, at 11:50 UTC
Wind 10 kt from the Northwest
Temperature 15°C
Humidity 77%
Pressure 1011 hPa
Visibility 10 km or more
Broken clouds at a height of 1700 ft

METAR: EGPI 161150Z 32010KT 9999 BKN017 15/11 Q1011

Time: 13:26 (12:26 UTC)

Forecast

The report was made 1 hour and 31 minutes ago, at 10:55 UTC
Forecast valid from 16 at 12 UTC to 16 at 19 UTC
Wind 12 kt from the Northwest
Visibility 10 km or more
Scattered clouds at a height of 1400 ft

TAF: EGPI 161055Z 1612/1619 31012KT 9999 SCT014

Weather observations and forecasts of more than 4000 airports (METAR and TAF reports).

The available stations are represented by yellow and red dots on the map.

Hover mouse over dot to see the name of the station.

Then click to see weather observations and forecasts.

To change the map : click on the green buttons with a black cross to zoom in, on the green button with a dash to zoom out, or on the green arrows for adjacent maps.


METAR-TAF: